KPBI/PBI METAR and TAF weather

Enter ICAO airport designator
Station Type Date Time Source
KPBI METAR 2019/05/25 14:53 UTC NOAA

KPBI 251453Z 07011KT 10SM SCT030 24/18 A3012 RMK AO2 SLP199 T02440183 51012


Station Type Date Time Source
KPBI Decoded METAR 2019/05/25 14:53 UTC NOAA

PALM BEACH INTERNATIONAL, FL, United States (KPBI) 26-41N 80-06W 6M
May 25, 2019 - 10:53 AM EDT / 2019.05.25 1453 UTC
Wind: from the ENE (070 degrees) at 13 MPH (11 KT):0
Visibility: 10 mile(s):0
Sky conditions: partly cloudy
Temperature: 75.9 F (24.4 C)
Dew Point: 64.9 F (18.3 C)
Relative Humidity: 68%
Pressure (altimeter): 30.12 in. Hg (1019 hPa)
Pressure tendency: 0.04 inches (1.2 hPa) higher than three hours ago
ob: KPBI 251453Z 07011KT 10SM SCT030 24/18 A3012 RMK AO2 SLP199 T02440183 51012
cycle: 15

Station Type Date Time Source
KPBI TAF 2019/05/25 15:08 UTC NOAA

TAF
AMD KPBI 251502Z 2515/2612 07015G25KT P6SM SCT030 SCT050
FM260100 10012KT P6SM FEW030

Example: see airport list